Terminal Aerodrome Forecast
Issued by NWS

Home | Current Version | Previous Version | Text Only | Print | Product List | Glossary On
Versions: 1 2 3 4 5 6 7 8 9 10 11 12 13 14 15 16 17
000
FTUS45 KSLC 241741 CCA
TAFSGU
TAF COR
KSGU 241741Z 2418/2518 VRB04KT P6SM SKC
     FM242000 26010KT P6SM SCT200
     FM250300 14005KT P6SM SCT200
      AMD LTD TO CLD VIS AND WIND=

USA.gov is the U.S. government's official web portal to all federal, state and local government web resources and services.